sensor_id;sensor_type;location;lat;lon;timestamp;temperature;humidity
22680;DHT22;11507;44.858;10.374;2024-02-26T00:01:02;6.20;99.90
22680;DHT22;11507;44.858;10.374;2024-02-26T00:03:28;6.20;99.90
22680;DHT22;11507;44.858;10.374;2024-02-26T00:05:54;6.20;99.90
22680;DHT22;11507;44.858;10.374;2024-02-26T00:08:22;6.20;99.90
22680;DHT22;11507;44.858;10.374;2024-02-26T00:10:48;6.20;99.90
22680;DHT22;11507;44.858;10.374;2024-02-26T00:13:15;6.20;99.90
22680;DHT22;11507;44.858;10.374;2024-02-26T00:15:41;6.10;99.90
22680;DHT22;11507;44.858;10.374;2024-02-26T00:18:07;6.10;99.90
22680;DHT22;11507;44.858;10.374;2024-02-26T00:20:33;6.20;99.90
22680;DHT22;11507;44.858;10.374;2024-02-26T00:22:59;6.20;99.90
22680;DHT22;11507;44.858;10.374;2024-02-26T00:25:26;6.20;99.90
22680;DHT22;11507;44.858;10.374;2024-02-26T00:27:52;6.20;99.90
22680;DHT22;11507;44.858;10.374;2024-02-26T00:30:18;6.20;99.90
22680;DHT22;11507;44.858;10.374;2024-02-26T00:32:44;6.10;99.90
22680;DHT22;11507;44.858;10.374;2024-02-26T00:35:10;6.10;99.90
22680;DHT22;11507;44.858;10.374;2024-02-26T00:37:37;6.10;99.90
22680;DHT22;11507;44.858;10.374;2024-02-26T00:40:03;6.10;99.90
22680;DHT22;11507;44.858;10.374;2024-02-26T00:42:30;6.10;99.90
22680;DHT22;11507;44.858;10.374;2024-02-26T00:44:56;6.10;99.90
22680;DHT22;11507;44.858;10.374;2024-02-26T00:47:22;6.10;99.90
22680;DHT22;11507;44.858;10.374;2024-02-26T00:49:48;6.00;99.90
22680;DHT22;11507;44.858;10.374;2024-02-26T00:52:15;6.00;99.90
22680;DHT22;11507;44.858;10.374;2024-02-26T00:54:41;6.00;99.90
22680;DHT22;11507;44.858;10.374;2024-02-26T00:57:07;6.00;99.90
22680;DHT22;11507;44.858;10.374;2024-02-26T00:59:33;6.00;99.90
22680;DHT22;11507;44.858;10.374;2024-02-26T01:01:59;5.90;99.90
22680;DHT22;11507;44.858;10.374;2024-02-26T01:04:28;5.90;99.90
22680;DHT22;11507;44.858;10.374;2024-02-26T01:06:54;5.90;99.90
22680;DHT22;11507;44.858;10.374;2024-02-26T01:09:20;5.90;99.90
22680;DHT22;11507;44.858;10.374;2024-02-26T01:11:46;5.90;99.90
22680;DHT22;11507;44.858;10.374;2024-02-26T01:14:13;5.90;99.90
22680;DHT22;11507;44.858;10.374;2024-02-26T01:16:39;5.90;99.90
22680;DHT22;11507;44.858;10.374;2024-02-26T01:19:05;5.80;99.90
22680;DHT22;11507;44.858;10.374;2024-02-26T01:21:32;5.80;99.90
22680;DHT22;11507;44.858;10.374;2024-02-26T01:23:58;5.70;99.90
22680;DHT22;11507;44.858;10.374;2024-02-26T01:26:24;5.70;99.90
22680;DHT22;11507;44.858;10.374;2024-02-26T01:28:51;5.70;99.90
22680;DHT22;11507;44.858;10.374;2024-02-26T01:31:17;5.60;99.90
22680;DHT22;11507;44.858;10.374;2024-02-26T01:33:43;5.60;99.90
22680;DHT22;11507;44.858;10.374;2024-02-26T01:36:09;5.60;99.90
22680;DHT22;11507;44.858;10.374;2024-02-26T01:38:36;5.60;99.90
22680;DHT22;11507;44.858;10.374;2024-02-26T01:41:03;5.50;99.90
22680;DHT22;11507;44.858;10.374;2024-02-26T01:43:29;5.50;99.90
22680;DHT22;11507;44.858;10.374;2024-02-26T01:45:55;5.50;99.90
22680;DHT22;11507;44.858;10.374;2024-02-26T01:48:22;5.40;99.90
22680;DHT22;11507;44.858;10.374;2024-02-26T01:50:48;5.40;99.90
22680;DHT22;11507;44.858;10.374;2024-02-26T01:53:15;5.30;99.90
22680;DHT22;11507;44.858;10.374;2024-02-26T01:55:42;5.30;99.90
22680;DHT22;11507;44.858;10.374;2024-02-26T01:58:09;5.30;99.90
22680;DHT22;11507;44.858;10.374;2024-02-26T02:00:35;5.20;99.90
22680;DHT22;11507;44.858;10.374;2024-02-26T02:03:03;5.20;99.90
22680;DHT22;11507;44.858;10.374;2024-02-26T02:05:30;5.20;99.90
22680;DHT22;11507;44.858;10.374;2024-02-26T02:07:57;5.20;99.90
22680;DHT22;11507;44.858;10.374;2024-02-26T02:10:25;5.20;99.90
22680;DHT22;11507;44.858;10.374;2024-02-26T02:12:52;5.20;99.90
22680;DHT22;11507;44.858;10.374;2024-02-26T02:15:19;5.20;99.90
22680;DHT22;11507;44.858;10.374;2024-02-26T02:17:46;5.20;99.90
22680;DHT22;11507;44.858;10.374;2024-02-26T02:20:16;5.10;99.90
22680;DHT22;11507;44.858;10.374;2024-02-26T02:22:46;5.00;99.90
22680;DHT22;11507;44.858;10.374;2024-02-26T02:25:12;5.00;99.90
22680;DHT22;11507;44.858;10.374;2024-02-26T02:27:40;5.00;99.90
22680;DHT22;11507;44.858;10.374;2024-02-26T02:30:08;4.90;99.90
22680;DHT22;11507;44.858;10.374;2024-02-26T02:32:36;4.90;99.90
22680;DHT22;11507;44.858;10.374;2024-02-26T02:35:04;4.80;99.90
22680;DHT22;11507;44.858;10.374;2024-02-26T02:37:31;4.80;99.90
22680;DHT22;11507;44.858;10.374;2024-02-26T02:39:57;4.70;99.90
22680;DHT22;11507;44.858;10.374;2024-02-26T02:42:24;4.70;99.90
22680;DHT22;11507;44.858;10.374;2024-02-26T02:44:50;4.70;99.90
22680;DHT22;11507;44.858;10.374;2024-02-26T02:47:17;4.70;99.90
22680;DHT22;11507;44.858;10.374;2024-02-26T02:49:43;4.70;99.90
22680;DHT22;11507;44.858;10.374;2024-02-26T02:52:09;4.80;99.90
22680;DHT22;11507;44.858;10.374;2024-02-26T02:54:36;4.80;99.90
22680;DHT22;11507;44.858;10.374;2024-02-26T02:57:04;4.80;99.90
22680;DHT22;11507;44.858;10.374;2024-02-26T02:59:30;4.80;99.90
22680;DHT22;11507;44.858;10.374;2024-02-26T03:01:56;4.90;99.90
22680;DHT22;11507;44.858;10.374;2024-02-26T03:04:23;5.00;99.90
22680;DHT22;11507;44.858;10.374;2024-02-26T03:06:49;5.00;99.90
22680;DHT22;11507;44.858;10.374;2024-02-26T03:09:15;5.00;99.90
22680;DHT22;11507;44.858;10.374;2024-02-26T03:11:41;5.10;99.90
22680;DHT22;11507;44.858;10.374;2024-02-26T03:14:08;5.30;99.90
22680;DHT22;11507;44.858;10.374;2024-02-26T03:16:35;5.30;99.90
22680;DHT22;11507;44.858;10.374;2024-02-26T03:19:02;5.30;99.90
22680;DHT22;11507;44.858;10.374;2024-02-26T03:21:29;5.30;99.90
22680;DHT22;11507;44.858;10.374;2024-02-26T03:23:55;5.40;99.90
22680;DHT22;11507;44.858;10.374;2024-02-26T03:26:23;5.40;99.90
22680;DHT22;11507;44.858;10.374;2024-02-26T03:28:49;5.40;99.90
22680;DHT22;11507;44.858;10.374;2024-02-26T03:31:15;5.40;99.90
22680;DHT22;11507;44.858;10.374;2024-02-26T03:33:42;5.50;99.90
22680;DHT22;11507;44.858;10.374;2024-02-26T03:36:08;5.50;99.90
22680;DHT22;11507;44.858;10.374;2024-02-26T03:38:34;5.50;99.90
22680;DHT22;11507;44.858;10.374;2024-02-26T03:41:01;5.60;99.90
22680;DHT22;11507;44.858;10.374;2024-02-26T03:43:27;5.60;99.90
22680;DHT22;11507;44.858;10.374;2024-02-26T03:45:53;5.70;99.90
22680;DHT22;11507;44.858;10.374;2024-02-26T03:48:20;5.80;99.90
22680;DHT22;11507;44.858;10.374;2024-02-26T03:50:46;5.90;99.90
22680;DHT22;11507;44.858;10.374;2024-02-26T03:53:12;5.90;99.90
22680;DHT22;11507;44.858;10.374;2024-02-26T03:55:39;6.00;99.90
22680;DHT22;11507;44.858;10.374;2024-02-26T03:58:07;6.00;99.90
22680;DHT22;11507;44.858;10.374;2024-02-26T04:00:34;6.10;99.90
22680;DHT22;11507;44.858;10.374;2024-02-26T04:03:01;6.10;99.90
22680;DHT22;11507;44.858;10.374;2024-02-26T04:05:27;6.10;99.90
22680;DHT22;11507;44.858;10.374;2024-02-26T04:07:54;6.10;99.90
22680;DHT22;11507;44.858;10.374;2024-02-26T04:10:20;6.10;99.90
22680;DHT22;11507;44.858;10.374;2024-02-26T04:12:46;6.10;99.90
22680;DHT22;11507;44.858;10.374;2024-02-26T04:15:13;6.10;99.90
22680;DHT22;11507;44.858;10.374;2024-02-26T04:17:40;6.20;99.90
22680;DHT22;11507;44.858;10.374;2024-02-26T04:20:07;6.20;99.90
22680;DHT22;11507;44.858;10.374;2024-02-26T04:22:34;6.20;99.90
22680;DHT22;11507;44.858;10.374;2024-02-26T04:25:00;6.30;99.90
22680;DHT22;11507;44.858;10.374;2024-02-26T04:27:26;6.40;99.90
22680;DHT22;11507;44.858;10.374;2024-02-26T04:29:52;6.50;99.90
22680;DHT22;11507;44.858;10.374;2024-02-26T04:32:19;6.50;99.90
22680;DHT22;11507;44.858;10.374;2024-02-26T04:34:45;6.50;99.90
22680;DHT22;11507;44.858;10.374;2024-02-26T04:37:12;6.50;99.90
22680;DHT22;11507;44.858;10.374;2024-02-26T04:39:38;6.50;99.90
22680;DHT22;11507;44.858;10.374;2024-02-26T04:42:05;6.40;99.90
22680;DHT22;11507;44.858;10.374;2024-02-26T04:44:31;6.50;99.90
22680;DHT22;11507;44.858;10.374;2024-02-26T04:46:57;6.50;99.90
22680;DHT22;11507;44.858;10.374;2024-02-26T04:49:24;6.50;99.90
22680;DHT22;11507;44.858;10.374;2024-02-26T04:51:50;6.50;99.90
22680;DHT22;11507;44.858;10.374;2024-02-26T04:54:16;6.50;99.90
22680;DHT22;11507;44.858;10.374;2024-02-26T04:56:43;6.60;99.90
22680;DHT22;11507;44.858;10.374;2024-02-26T04:59:10;6.50;99.90
22680;DHT22;11507;44.858;10.374;2024-02-26T05:01:36;6.50;99.90
22680;DHT22;11507;44.858;10.374;2024-02-26T05:04:02;6.50;99.90
22680;DHT22;11507;44.858;10.374;2024-02-26T05:06:31;6.50;99.90
22680;DHT22;11507;44.858;10.374;2024-02-26T05:08:58;6.60;99.90
22680;DHT22;11507;44.858;10.374;2024-02-26T05:11:24;6.60;99.90
22680;DHT22;11507;44.858;10.374;2024-02-26T05:13:50;6.60;99.90
22680;DHT22;11507;44.858;10.374;2024-02-26T05:16:16;6.50;99.90
22680;DHT22;11507;44.858;10.374;2024-02-26T05:18:42;6.50;99.90
22680;DHT22;11507;44.858;10.374;2024-02-26T05:21:09;6.50;99.90
22680;DHT22;11507;44.858;10.374;2024-02-26T05:23:35;6.50;99.90
22680;DHT22;11507;44.858;10.374;2024-02-26T05:26:01;6.50;99.90
22680;DHT22;11507;44.858;10.374;2024-02-26T05:28:27;6.50;99.90
22680;DHT22;11507;44.858;10.374;2024-02-26T05:30:54;6.60;99.90
22680;DHT22;11507;44.858;10.374;2024-02-26T05:33:20;6.60;99.90
22680;DHT22;11507;44.858;10.374;2024-02-26T05:35:47;6.60;99.90
22680;DHT22;11507;44.858;10.374;2024-02-26T05:38:13;6.60;99.90
22680;DHT22;11507;44.858;10.374;2024-02-26T05:40:40;6.60;99.90
22680;DHT22;11507;44.858;10.374;2024-02-26T05:43:06;6.50;99.90
22680;DHT22;11507;44.858;10.374;2024-02-26T05:45:32;6.60;99.90
22680;DHT22;11507;44.858;10.374;2024-02-26T05:47:58;6.60;99.90
22680;DHT22;11507;44.858;10.374;2024-02-26T05:50:25;6.50;99.90
22680;DHT22;11507;44.858;10.374;2024-02-26T05:52:51;6.50;99.90
22680;DHT22;11507;44.858;10.374;2024-02-26T05:55:17;6.50;99.90
22680;DHT22;11507;44.858;10.374;2024-02-26T05:57:44;6.50;99.90
22680;DHT22;11507;44.858;10.374;2024-02-26T06:00:10;6.50;99.90
22680;DHT22;11507;44.858;10.374;2024-02-26T06:02:38;6.50;99.90
22680;DHT22;11507;44.858;10.374;2024-02-26T06:05:05;6.50;99.90
22680;DHT22;11507;44.858;10.374;2024-02-26T06:07:33;6.50;99.90
22680;DHT22;11507;44.858;10.374;2024-02-26T06:09:59;6.60;99.90
22680;DHT22;11507;44.858;10.374;2024-02-26T06:12:25;6.50;99.90
22680;DHT22;11507;44.858;10.374;2024-02-26T06:14:52;6.50;99.90
22680;DHT22;11507;44.858;10.374;2024-02-26T06:17:18;6.50;99.90
22680;DHT22;11507;44.858;10.374;2024-02-26T06:19:44;6.50;99.90
22680;DHT22;11507;44.858;10.374;2024-02-26T06:22:11;6.50;99.90
22680;DHT22;11507;44.858;10.374;2024-02-26T06:24:37;6.50;99.90
22680;DHT22;11507;44.858;10.374;2024-02-26T06:27:03;6.50;99.90
22680;DHT22;11507;44.858;10.374;2024-02-26T06:29:29;6.50;99.90
22680;DHT22;11507;44.858;10.374;2024-02-26T06:31:56;6.50;99.90
22680;DHT22;11507;44.858;10.374;2024-02-26T06:34:22;6.50;99.90
22680;DHT22;11507;44.858;10.374;2024-02-26T06:36:49;6.50;99.90
22680;DHT22;11507;44.858;10.374;2024-02-26T06:39:15;6.50;99.90
22680;DHT22;11507;44.858;10.374;2024-02-26T06:41:42;6.50;99.90
22680;DHT22;11507;44.858;10.374;2024-02-26T06:44:08;6.50;99.90
22680;DHT22;11507;44.858;10.374;2024-02-26T06:46:34;6.50;99.90
22680;DHT22;11507;44.858;10.374;2024-02-26T06:49:00;6.50;99.90
22680;DHT22;11507;44.858;10.374;2024-02-26T06:51:27;6.50;99.90
22680;DHT22;11507;44.858;10.374;2024-02-26T06:53:53;6.50;99.90
22680;DHT22;11507;44.858;10.374;2024-02-26T06:56:19;6.50;99.90
22680;DHT22;11507;44.858;10.374;2024-02-26T06:58:45;6.60;99.90
22680;DHT22;11507;44.858;10.374;2024-02-26T07:01:12;6.60;99.90
22680;DHT22;11507;44.858;10.374;2024-02-26T07:03:40;6.60;99.90
22680;DHT22;11507;44.858;10.374;2024-02-26T07:06:07;6.70;99.90
22680;DHT22;11507;44.858;10.374;2024-02-26T07:08:34;6.70;99.90
22680;DHT22;11507;44.858;10.374;2024-02-26T07:11:00;6.70;99.90
22680;DHT22;11507;44.858;10.374;2024-02-26T07:13:26;6.80;99.90
22680;DHT22;11507;44.858;10.374;2024-02-26T07:15:53;6.80;99.90
22680;DHT22;11507;44.858;10.374;2024-02-26T07:18:19;6.80;99.90
22680;DHT22;11507;44.858;10.374;2024-02-26T07:20:46;6.90;99.90
22680;DHT22;11507;44.858;10.374;2024-02-26T07:23:13;6.90;99.90
22680;DHT22;11507;44.858;10.374;2024-02-26T07:25:39;6.90;99.90
22680;DHT22;11507;44.858;10.374;2024-02-26T07:28:06;7.00;99.90
22680;DHT22;11507;44.858;10.374;2024-02-26T07:30:33;7.00;99.90
22680;DHT22;11507;44.858;10.374;2024-02-26T07:32:59;7.00;99.90
22680;DHT22;11507;44.858;10.374;2024-02-26T07:35:25;7.00;99.90
22680;DHT22;11507;44.858;10.374;2024-02-26T07:37:53;7.00;99.90
22680;DHT22;11507;44.858;10.374;2024-02-26T07:40:19;7.00;99.90
22680;DHT22;11507;44.858;10.374;2024-02-26T07:42:45;7.00;99.90
22680;DHT22;11507;44.858;10.374;2024-02-26T07:45:12;7.00;99.90
22680;DHT22;11507;44.858;10.374;2024-02-26T07:47:38;7.00;99.90
22680;DHT22;11507;44.858;10.374;2024-02-26T07:50:08;7.00;99.90
22680;DHT22;11507;44.858;10.374;2024-02-26T07:52:34;7.10;99.90
22680;DHT22;11507;44.858;10.374;2024-02-26T07:55:01;7.10;99.90
22680;DHT22;11507;44.858;10.374;2024-02-26T07:57:27;7.10;99.90
22680;DHT22;11507;44.858;10.374;2024-02-26T07:59:53;7.10;99.90
22680;DHT22;11507;44.858;10.374;2024-02-26T08:02:21;7.20;99.90
22680;DHT22;11507;44.858;10.374;2024-02-26T08:04:47;7.20;99.90
22680;DHT22;11507;44.858;10.374;2024-02-26T08:07:14;7.30;99.90
22680;DHT22;11507;44.858;10.374;2024-02-26T08:09:40;7.30;99.90
22680;DHT22;11507;44.858;10.374;2024-02-26T08:12:07;7.40;99.90
22680;DHT22;11507;44.858;10.374;2024-02-26T08:14:33;7.40;99.90
22680;DHT22;11507;44.858;10.374;2024-02-26T08:17:00;7.50;99.90
22680;DHT22;11507;44.858;10.374;2024-02-26T08:19:26;7.40;99.90
22680;DHT22;11507;44.858;10.374;2024-02-26T08:21:53;7.40;99.90
22680;DHT22;11507;44.858;10.374;2024-02-26T08:24:19;7.50;99.90
22680;DHT22;11507;44.858;10.374;2024-02-26T08:26:45;7.50;99.90
22680;DHT22;11507;44.858;10.374;2024-02-26T08:29:12;7.60;99.90
22680;DHT22;11507;44.858;10.374;2024-02-26T08:31:38;7.60;99.90
22680;DHT22;11507;44.858;10.374;2024-02-26T08:34:04;7.70;99.90
22680;DHT22;11507;44.858;10.374;2024-02-26T08:36:33;7.70;99.90
22680;DHT22;11507;44.858;10.374;2024-02-26T08:39:00;7.70;99.90
22680;DHT22;11507;44.858;10.374;2024-02-26T08:41:26;7.70;99.90
22680;DHT22;11507;44.858;10.374;2024-02-26T08:43:52;7.70;99.90
22680;DHT22;11507;44.858;10.374;2024-02-26T08:46:19;7.70;99.90
22680;DHT22;11507;44.858;10.374;2024-02-26T08:48:45;7.70;99.90
22680;DHT22;11507;44.858;10.374;2024-02-26T08:51:11;7.70;99.90
22680;DHT22;11507;44.858;10.374;2024-02-26T08:53:39;7.70;99.90
22680;DHT22;11507;44.858;10.374;2024-02-26T08:56:05;7.80;99.90
22680;DHT22;11507;44.858;10.374;2024-02-26T08:58:32;7.80;99.90
22680;DHT22;11507;44.858;10.374;2024-02-26T09:00:58;7.80;99.90
22680;DHT22;11507;44.858;10.374;2024-02-26T09:03:24;7.70;99.90
22680;DHT22;11507;44.858;10.374;2024-02-26T09:05:52;7.70;99.90
22680;DHT22;11507;44.858;10.374;2024-02-26T09:08:18;7.80;99.90
22680;DHT22;11507;44.858;10.374;2024-02-26T09:10:44;7.80;99.90
22680;DHT22;11507;44.858;10.374;2024-02-26T09:13:11;7.80;99.90
22680;DHT22;11507;44.858;10.374;2024-02-26T09:15:37;7.90;99.90
22680;DHT22;11507;44.858;10.374;2024-02-26T09:18:03;7.90;99.90
22680;DHT22;11507;44.858;10.374;2024-02-26T09:20:30;7.90;99.90
22680;DHT22;11507;44.858;10.374;2024-02-26T09:22:56;8.00;99.90
22680;DHT22;11507;44.858;10.374;2024-02-26T09:25:23;8.00;99.90
22680;DHT22;11507;44.858;10.374;2024-02-26T09:27:49;8.10;99.90
22680;DHT22;11507;44.858;10.374;2024-02-26T09:30:16;8.10;99.90
22680;DHT22;11507;44.858;10.374;2024-02-26T09:32:46;8.20;99.90
22680;DHT22;11507;44.858;10.374;2024-02-26T09:35:14;8.30;99.90
22680;DHT22;11507;44.858;10.374;2024-02-26T09:37:40;8.40;99.90
22680;DHT22;11507;44.858;10.374;2024-02-26T09:40:09;8.50;99.90
22680;DHT22;11507;44.858;10.374;2024-02-26T09:42:38;8.70;99.90
22680;DHT22;11507;44.858;10.374;2024-02-26T09:45:11;8.80;99.90
22680;DHT22;11507;44.858;10.374;2024-02-26T09:47:38;8.90;99.90
22680;DHT22;11507;44.858;10.374;2024-02-26T09:50:07;8.90;99.90
22680;DHT22;11507;44.858;10.374;2024-02-26T09:52:38;9.00;99.90
22680;DHT22;11507;44.858;10.374;2024-02-26T09:55:05;9.10;99.90
22680;DHT22;11507;44.858;10.374;2024-02-26T09:57:32;9.20;99.90
22680;DHT22;11507;44.858;10.374;2024-02-26T10:00:00;9.20;99.90
22680;DHT22;11507;44.858;10.374;2024-02-26T10:02:30;9.10;99.90
22680;DHT22;11507;44.858;10.374;2024-02-26T10:04:59;9.10;99.90
22680;DHT22;11507;44.858;10.374;2024-02-26T10:07:28;9.10;99.90
22680;DHT22;11507;44.858;10.374;2024-02-26T10:09:56;9.10;99.90
22680;DHT22;11507;44.858;10.374;2024-02-26T10:12:23;9.10;99.90
22680;DHT22;11507;44.858;10.374;2024-02-26T10:14:51;9.10;99.90
22680;DHT22;11507;44.858;10.374;2024-02-26T10:17:19;9.10;99.90
22680;DHT22;11507;44.858;10.374;2024-02-26T10:19:46;9.10;99.90
22680;DHT22;11507;44.858;10.374;2024-02-26T10:22:12;9.10;99.90
22680;DHT22;11507;44.858;10.374;2024-02-26T10:24:38;9.10;99.90
22680;DHT22;11507;44.858;10.374;2024-02-26T10:27:05;9.00;99.90
22680;DHT22;11507;44.858;10.374;2024-02-26T10:29:31;8.90;99.90
22680;DHT22;11507;44.858;10.374;2024-02-26T10:31:58;8.90;99.90
22680;DHT22;11507;44.858;10.374;2024-02-26T10:34:24;9.00;99.90
22680;DHT22;11507;44.858;10.374;2024-02-26T10:36:51;9.00;99.90
22680;DHT22;11507;44.858;10.374;2024-02-26T10:39:18;9.10;99.90
22680;DHT22;11507;44.858;10.374;2024-02-26T10:41:45;9.10;99.90
22680;DHT22;11507;44.858;10.374;2024-02-26T10:44:12;9.10;99.90
22680;DHT22;11507;44.858;10.374;2024-02-26T10:46:41;9.10;99.90
22680;DHT22;11507;44.858;10.374;2024-02-26T10:49:14;9.20;99.90
22680;DHT22;11507;44.858;10.374;2024-02-26T10:51:44;9.20;99.90
22680;DHT22;11507;44.858;10.374;2024-02-26T10:54:15;9.20;99.90
22680;DHT22;11507;44.858;10.374;2024-02-26T10:56:43;9.30;99.90
22680;DHT22;11507;44.858;10.374;2024-02-26T10:59:12;9.30;99.90
22680;DHT22;11507;44.858;10.374;2024-02-26T11:01:41;9.40;99.90
22680;DHT22;11507;44.858;10.374;2024-02-26T11:04:13;9.50;99.90
22680;DHT22;11507;44.858;10.374;2024-02-26T11:06:42;9.50;99.90
22680;DHT22;11507;44.858;10.374;2024-02-26T11:09:12;9.60;99.90
22680;DHT22;11507;44.858;10.374;2024-02-26T11:11:41;9.50;99.90
22680;DHT22;11507;44.858;10.374;2024-02-26T11:14:09;9.50;99.90
22680;DHT22;11507;44.858;10.374;2024-02-26T11:16:36;9.50;99.90
22680;DHT22;11507;44.858;10.374;2024-02-26T11:19:04;9.60;99.90
22680;DHT22;11507;44.858;10.374;2024-02-26T11:21:33;9.60;99.90
22680;DHT22;11507;44.858;10.374;2024-02-26T11:24:09;9.70;99.90
22680;DHT22;11507;44.858;10.374;2024-02-26T11:26:43;9.70;99.90
22680;DHT22;11507;44.858;10.374;2024-02-26T11:29:18;9.80;99.90
22680;DHT22;11507;44.858;10.374;2024-02-26T11:31:45;9.90;99.90
22680;DHT22;11507;44.858;10.374;2024-02-26T11:34:12;9.90;99.90
22680;DHT22;11507;44.858;10.374;2024-02-26T11:36:39;9.90;99.90
22680;DHT22;11507;44.858;10.374;2024-02-26T11:39:05;10.00;99.90
22680;DHT22;11507;44.858;10.374;2024-02-26T11:41:32;10.00;99.90
22680;DHT22;11507;44.858;10.374;2024-02-26T11:44:02;10.00;99.90
22680;DHT22;11507;44.858;10.374;2024-02-26T11:46:39;10.00;99.90
22680;DHT22;11507;44.858;10.374;2024-02-26T11:51:57;10.00;99.90
22680;DHT22;11507;44.858;10.374;2024-02-26T11:54:49;9.90;99.90
22680;DHT22;11507;44.858;10.374;2024-02-26T11:57:24;9.90;99.90
22680;DHT22;11507;44.858;10.374;2024-02-26T12:00:18;9.90;99.90
22680;DHT22;11507;44.858;10.374;2024-02-26T12:02:55;9.90;99.90
22680;DHT22;11507;44.858;10.374;2024-02-26T12:05:31;9.90;99.90
22680;DHT22;11507;44.858;10.374;2024-02-26T12:08:05;9.90;99.90
22680;DHT22;11507;44.858;10.374;2024-02-26T12:10:34;9.90;99.90
22680;DHT22;11507;44.858;10.374;2024-02-26T12:13:12;10.00;99.90
22680;DHT22;11507;44.858;10.374;2024-02-26T12:15:43;10.00;99.90
22680;DHT22;11507;44.858;10.374;2024-02-26T12:18:17;10.00;99.90
22680;DHT22;11507;44.858;10.374;2024-02-26T12:20:44;10.10;99.90
22680;DHT22;11507;44.858;10.374;2024-02-26T12:23:15;10.20;99.90
22680;DHT22;11507;44.858;10.374;2024-02-26T12:25:44;10.40;99.90
22680;DHT22;11507;44.858;10.374;2024-02-26T12:28:10;10.60;99.90
22680;DHT22;11507;44.858;10.374;2024-02-26T12:30:36;10.70;99.90
22680;DHT22;11507;44.858;10.374;2024-02-26T12:33:02;10.90;99.90
22680;DHT22;11507;44.858;10.374;2024-02-26T12:35:29;10.90;99.90
22680;DHT22;11507;44.858;10.374;2024-02-26T12:37:58;10.90;99.90
22680;DHT22;11507;44.858;10.374;2024-02-26T12:40:25;10.90;99.90
22680;DHT22;11507;44.858;10.374;2024-02-26T12:42:54;10.70;99.90
22680;DHT22;11507;44.858;10.374;2024-02-26T12:45:21;10.70;99.90
22680;DHT22;11507;44.858;10.374;2024-02-26T12:47:47;10.80;99.90
22680;DHT22;11507;44.858;10.374;2024-02-26T12:50:15;10.90;99.90
22680;DHT22;11507;44.858;10.374;2024-02-26T12:52:45;10.90;99.90
22680;DHT22;11507;44.858;10.374;2024-02-26T12:55:15;10.90;99.90
22680;DHT22;11507;44.858;10.374;2024-02-26T12:57:43;10.80;99.90
22680;DHT22;11507;44.858;10.374;2024-02-26T13:00:13;10.70;99.90
22680;DHT22;11507;44.858;10.374;2024-02-26T13:02:41;10.70;99.90
22680;DHT22;11507;44.858;10.374;2024-02-26T13:05:12;10.70;99.90
22680;DHT22;11507;44.858;10.374;2024-02-26T13:07:43;10.70;99.90
22680;DHT22;11507;44.858;10.374;2024-02-26T13:10:10;10.80;99.90
22680;DHT22;11507;44.858;10.374;2024-02-26T13:12:46;10.90;99.90
22680;DHT22;11507;44.858;10.374;2024-02-26T13:15:18;10.80;99.90
22680;DHT22;11507;44.858;10.374;2024-02-26T13:17:45;10.90;99.90
22680;DHT22;11507;44.858;10.374;2024-02-26T13:20:12;10.90;99.90
22680;DHT22;11507;44.858;10.374;2024-02-26T13:22:41;10.90;99.90
22680;DHT22;11507;44.858;10.374;2024-02-26T13:25:07;11.00;99.90
22680;DHT22;11507;44.858;10.374;2024-02-26T13:27:34;11.10;99.90
22680;DHT22;11507;44.858;10.374;2024-02-26T13:30:11;11.10;99.90
22680;DHT22;11507;44.858;10.374;2024-02-26T13:32:40;10.90;99.90
22680;DHT22;11507;44.858;10.374;2024-02-26T13:35:11;10.90;99.90
22680;DHT22;11507;44.858;10.374;2024-02-26T13:37:39;10.90;99.90
22680;DHT22;11507;44.858;10.374;2024-02-26T13:40:14;10.90;99.90
22680;DHT22;11507;44.858;10.374;2024-02-26T13:42:41;10.80;99.90
22680;DHT22;11507;44.858;10.374;2024-02-26T13:45:07;10.50;99.90
22680;DHT22;11507;44.858;10.374;2024-02-26T13:47:34;10.50;99.90
22680;DHT22;11507;44.858;10.374;2024-02-26T13:50:01;10.40;99.90
22680;DHT22;11507;44.858;10.374;2024-02-26T13:52:28;10.30;99.90
22680;DHT22;11507;44.858;10.374;2024-02-26T13:54:54;10.30;99.90
22680;DHT22;11507;44.858;10.374;2024-02-26T13:57:20;10.30;99.90
22680;DHT22;11507;44.858;10.374;2024-02-26T13:59:47;10.40;99.90
22680;DHT22;11507;44.858;10.374;2024-02-26T14:02:13;10.50;99.90
22680;DHT22;11507;44.858;10.374;2024-02-26T14:04:39;10.60;99.90
22680;DHT22;11507;44.858;10.374;2024-02-26T14:07:06;10.60;99.90
22680;DHT22;11507;44.858;10.374;2024-02-26T14:09:32;10.60;99.90
22680;DHT22;11507;44.858;10.374;2024-02-26T14:12:00;10.50;99.90
22680;DHT22;11507;44.858;10.374;2024-02-26T14:14:29;10.40;99.90
22680;DHT22;11507;44.858;10.374;2024-02-26T14:17:01;10.30;99.90
22680;DHT22;11507;44.858;10.374;2024-02-26T14:19:29;10.30;99.90
22680;DHT22;11507;44.858;10.374;2024-02-26T14:21:55;10.30;99.90
22680;DHT22;11507;44.858;10.374;2024-02-26T14:24:22;10.40;99.90
22680;DHT22;11507;44.858;10.374;2024-02-26T14:26:48;10.40;99.90
22680;DHT22;11507;44.858;10.374;2024-02-26T14:29:14;10.50;99.90
22680;DHT22;11507;44.858;10.374;2024-02-26T14:31:42;10.60;99.90
22680;DHT22;11507;44.858;10.374;2024-02-26T14:34:08;10.60;99.90
22680;DHT22;11507;44.858;10.374;2024-02-26T14:36:35;10.60;99.90
22680;DHT22;11507;44.858;10.374;2024-02-26T14:39:01;10.60;99.90
22680;DHT22;11507;44.858;10.374;2024-02-26T14:41:28;10.60;99.90
22680;DHT22;11507;44.858;10.374;2024-02-26T14:43:54;10.60;99.90
22680;DHT22;11507;44.858;10.374;2024-02-26T14:46:21;10.60;99.90
22680;DHT22;11507;44.858;10.374;2024-02-26T14:48:47;10.60;99.90
22680;DHT22;11507;44.858;10.374;2024-02-26T14:51:13;10.60;99.90
22680;DHT22;11507;44.858;10.374;2024-02-26T14:53:39;10.50;99.90
22680;DHT22;11507;44.858;10.374;2024-02-26T14:56:07;10.50;99.90
22680;DHT22;11507;44.858;10.374;2024-02-26T14:58:33;10.40;99.90
22680;DHT22;11507;44.858;10.374;2024-02-26T15:00:59;10.30;99.90
22680;DHT22;11507;44.858;10.374;2024-02-26T15:03:26;10.20;99.90
22680;DHT22;11507;44.858;10.374;2024-02-26T15:05:52;10.10;99.90
22680;DHT22;11507;44.858;10.374;2024-02-26T15:08:18;10.10;99.90
22680;DHT22;11507;44.858;10.374;2024-02-26T15:10:44;10.00;99.90
22680;DHT22;11507;44.858;10.374;2024-02-26T15:13:14;10.00;99.90
22680;DHT22;11507;44.858;10.374;2024-02-26T15:15:42;9.90;99.90
22680;DHT22;11507;44.858;10.374;2024-02-26T15:18:08;9.90;99.90
22680;DHT22;11507;44.858;10.374;2024-02-26T15:20:37;9.80;99.90
22680;DHT22;11507;44.858;10.374;2024-02-26T15:23:06;9.70;99.90
22680;DHT22;11507;44.858;10.374;2024-02-26T15:25:32;9.70;99.90
22680;DHT22;11507;44.858;10.374;2024-02-26T15:27:59;9.60;99.90
22680;DHT22;11507;44.858;10.374;2024-02-26T15:30:25;9.50;99.90